地図

経路データ

SID SEASON NUMBER BASIN SUBBASIN NAME ISO_TIME NATURE LAT LON WMO_WIND WMO_PRES WMO_AGENCY TRACK_TYPE DIST2LAND LANDFALL IFLAG USA_AGENCY USA_ATCF_ID USA_LAT USA_LON USA_RECORD USA_STATUS USA_WIND USA_PRES USA_SSHS USA_R34_NE USA_R34_SE USA_R34_SW USA_R34_NW USA_R50_NE USA_R50_SE USA_R50_SW USA_R50_NW USA_R64_NE USA_R64_SE USA_R64_SW USA_R64_NW USA_POCI USA_ROCI USA_RMW USA_EYE TOKYO_LAT TOKYO_LON TOKYO_GRADE TOKYO_WIND TOKYO_PRES TOKYO_R50_DIR TOKYO_R50_LONG TOKYO_R50_SHORT TOKYO_R30_DIR TOKYO_R30_LONG TOKYO_R30_SHORT TOKYO_LAND CMA_LAT CMA_LON CMA_CAT CMA_WIND CMA_PRES HKO_LAT HKO_LON HKO_CAT HKO_WIND HKO_PRES NEWDELHI_LAT NEWDELHI_LON NEWDELHI_GRADE NEWDELHI_WIND NEWDELHI_PRES NEWDELHI_CI NEWDELHI_DP NEWDELHI_POCI REUNION_LAT REUNION_LON REUNION_TYPE REUNION_WIND REUNION_PRES REUNION_TNUM REUNION_CI REUNION_RMW REUNION_R34_NE REUNION_R34_SE REUNION_R34_SW REUNION_R34_NW REUNION_R50_NE REUNION_R50_SE REUNION_R50_SW REUNION_R50_NW REUNION_R64_NE REUNION_R64_SE REUNION_R64_SW REUNION_R64_NW BOM_LAT BOM_LON BOM_TYPE BOM_WIND BOM_PRES BOM_TNUM BOM_CI BOM_RMW BOM_R34_NE BOM_R34_SE BOM_R34_SW BOM_R34_NW BOM_R50_NE BOM_R50_SE BOM_R50_SW BOM_R50_NW BOM_R64_NE BOM_R64_SE BOM_R64_SW BOM_R64_NW BOM_ROCI BOM_POCI BOM_EYE BOM_POS_METHOD BOM_PRES_METHOD NADI_LAT NADI_LON NADI_CAT NADI_WIND NADI_PRES WELLINGTON_LAT WELLINGTON_LON WELLINGTON_WIND WELLINGTON_PRES DS824_LAT DS824_LON DS824_STAGE DS824_WIND DS824_PRES TD9636_LAT TD9636_LON TD9636_STAGE TD9636_WIND TD9636_PRES TD9635_LAT TD9635_LON TD9635_WIND TD9635_PRES TD9635_ROCI NEUMANN_LAT NEUMANN_LON NEUMANN_CLASS NEUMANN_WIND NEUMANN_PRES MLC_LAT MLC_LON MLC_CLASS MLC_WIND MLC_PRES USA_GUST BOM_GUST BOM_GUST_PER REUNION_GUST REUNION_GUST_PER USA_SEAHGT USA_SEARAD_NE USA_SEARAD_SE USA_SEARAD_SW USA_SEARAD_NW STORM_SPEED STORM_DIR
2000102S13128 2000 25 SI WA PAUL 2000-04-10 22:00:00 NR -13.0000 127.500 25 1000 bom main 99 92 ______O_______ -1 -13.0000 127.500 20 25 1000 2.00000 215 3 5 7 258
2000102S13128 2000 25 SI WA PAUL 2000-04-11 00:00:00 TS -13.0501 127.268 main 81 79 O_____P_____O_ jtwc_sh SH242000 -13.1000 127.400 TD 20 -1 -13.0003 127.135 20 25 1000 215 -13.1000 127.400 TC 20 12 271
2000102S13128 2000 25 SI WA PAUL 2000-04-11 03:00:00 TS -12.9850 126.498 main 99 99 P_____P_____P_ SH242000 -12.9736 126.432 TD 22 -1 -13.0001 126.585 20 25 1000 215 -12.9736 126.432 TC 22 15 275
2000102S13128 2000 25 SI WA PAUL 2000-04-11 04:00:00 TS -12.9642 126.240 25 1000 bom main 112 111 P_____O_____P_ SH242000 -12.9403 126.133 TD 23 -1 -13.0000 126.400 20 25 1000 2.00000 215 3 5 -12.9403 126.133 TC 23 15 274
2000102S13128 2000 25 SI WA PAUL 2000-04-11 06:00:00 TS -12.9333 125.741 main 130 130 O_____P_____O_ jtwc_sh SH242000 -12.9000 125.600 TD 25 -1 -12.9998 126.024 20 25 1000 215 -12.9000 125.600 TC 25 13 271
2000102S13128 2000 25 SI WA PAUL 2000-04-11 09:00:00 TS -12.9462 125.125 main 163 155 P_____P_____P_ SH242000 -12.9193 124.978 TD 25 -1 -12.9998 125.420 20 25 1000 215 -12.9193 124.978 TC 25 12 268
2000102S13128 2000 25 SI WA PAUL 2000-04-11 10:00:00 TS -12.9613 124.927 25 1000 bom main 164 164 P_____O_____P_ SH242000 -12.9419 124.791 TD 25 -1 -13.0000 125.200 20 25 1000 2.00000 215 3 5 -12.9419 124.791 TC 25 12 265
2000102S13128 2000 25 SI WA PAUL 2000-04-11 12:00:00 TS -12.9999 124.513 main 187 187 O_____P_____O_ jtwc_sh SH242000 -13.0000 124.400 TD 25 -1 -12.9998 124.740 20 25 1000 215 -13.0000 124.400 TC 25 13 265
2000102S13128 2000 25 SI WA PAUL 2000-04-11 15:00:00 TS -13.0663 123.803 main 225 225 P_____P_____P_ SH242000 -13.0995 123.717 TD 25 -1 -12.9998 123.975 20 25 1000 215 -13.0995 123.717 TC 25 14 265
2000102S13128 2000 25 SI WA PAUL 2000-04-11 16:00:00 TS -13.0902 123.542 25 1000 bom main 248 248 P_____O_____P_ SH242000 -13.1353 123.464 TD 25 -1 -13.0000 123.700 20 25 1000 2.00000 215 3 5 -13.1353 123.464 TC 25 16 266
2000102S13128 2000 25 SI WA PAUL 2000-04-11 18:00:00 TS -13.1297 122.976 main 290 290 O_____P_____O_ jtwc_sh SH242000 -13.2000 122.900 TD 25 -1 -12.9890 123.129 20 25 1000 215 -13.2000 122.900 TC 25 18 266
2000102S13128 2000 25 SI WA PAUL 2000-04-11 21:00:00 TS -13.1880 121.991 main 353 350 P_____P_____P_ SH242000 -13.2877 121.880 TD 25 -1 -12.9885 122.213 20 25 1000 215 -13.2877 121.880 TC 25 20 267
2000102S13128 2000 25 SI WA PAUL 2000-04-11 22:00:00 TS -13.2026 121.645 25 1000 bom main 346 329 P_____O_____P_ SH242000 -13.3039 121.517 TD 25 -1 -13.0000 121.900 20 25 1000 2.00000 215 3 5 -13.3039 121.517 TC 25 20 268
2000102S13128 2000 25 SI WA PAUL 2000-04-12 00:00:00 TS -13.2151 120.955 main 329 324 O_____P_____O_ jtwc_sh SH242000 -13.3000 120.800 TD 25 -1 -13.0453 121.264 20 25 1000 215 -13.3000 120.800 TC 25 20 271
2000102S13128 2000 25 SI WA PAUL 2000-04-12 03:00:00 TS -13.1617 119.972 main 329 322 P_____P_____P_ SH242000 -13.1648 119.805 TD 25 -1 -13.1556 120.308 20 25 1000 215 -13.1648 119.805 TC 25 19 274
2000102S13128 2000 25 SI WA PAUL 2000-04-12 04:00:00 TS -13.1372 119.660 25 1000 bom main 325 325 P_____O_____P_ SH242000 -13.1058 119.491 TD 25 -1 -13.2000 120.000 20 25 1000 2.00000 215 3 5 -13.1058 119.491 TC 25 18 274
2000102S13128 2000 25 SI WA PAUL 2000-04-12 06:00:00 TS -13.1008 119.074 main 346 346 O_____P_____O_ jtwc_sh SH242000 -13.0000 118.900 TD 25 -1 -13.3025 119.423 20 28 998 215 -13.0000 118.900 TC 25 16 272
2000102S13128 2000 25 SI WA PAUL 2000-04-12 09:00:00 TS -13.0942 118.275 main 385 385 P_____P_____P_ SH242000 -12.9120 118.120 TD 25 -1 -13.4585 118.584 20 33 995 215 -12.9120 118.120 TC 25 15 270
2000102S13128 2000 25 SI WA PAUL 2000-04-12 10:00:00 TS -13.0989 118.019 35 995 bom main 399 399 P_____O_____P_ SH242000 -12.8984 117.878 TD 25 -1 -13.5000 118.300 30 35 995 3.00000 215 3 5 -12.8984 117.878 TC 25 15 268
2000102S13128 2000 25 SI WA PAUL 2000-04-12 12:00:00 TS -13.1146 117.497 main 418 418 O_____P_____O_ jtwc_sh SH242000 -12.9000 117.400 TD 25 -1 -13.5437 117.691 30 35 995 215 -12.9000 117.400 TC 25 15 268
2000102S13128 2000 25 SI WA PAUL 2000-04-12 15:00:00 TS -13.1541 116.700 main 460 460 P_____P_____P_ SH242000 -12.9397 116.657 TD 27 -1 -13.5829 116.785 30 35 995 215 -12.9397 116.657 TC 27 16 266
2000102S13128 2000 25 SI WA PAUL 2000-04-12 16:00:00 TS -13.1849 116.438 35 995 bom main 463 463 P_____O_____P_ SH242000 -12.9773 116.408 TD 28 -1 -13.6000 116.500 30 35 995 3.00000 215 3 5 -12.9773 116.408 TC 28 15 260
2000102S13128 2000 25 SI WA PAUL 2000-04-12 18:00:00 TS -13.2861 115.925 main 484 484 O_____P_____O_ jtwc_sh SH242000 -13.1000 115.900 TD 30 -1 -13.6584 115.976 30 36 993 215 -13.1000 115.900 TC 30 16 254
2000102S13128 2000 25 SI WA PAUL 2000-04-12 21:00:00 TS -13.5547 115.133 main 534 534 P_____P_____P_ SH242000 -13.4501 115.078 TD 30 -1 -13.7638 115.242 30 39 990 215 -13.4501 115.078 TC 30 16 250
2000102S13128 2000 25 SI WA PAUL 2000-04-12 22:00:00 TS -13.6527 114.872 40 990 bom main 549 548 P_____O_____P_ SH242000 -13.5791 114.808 TD 30 -1 -13.8000 115.000 30 40 990 3.00000 215 3 5 -13.5791 114.808 TC 30 16 250
2000102S13128 2000 25 SI WA PAUL 2000-04-13 00:00:00 TS -13.8185 114.367 main 560 560 O_____P_____O_ jtwc_sh SH242000 -13.8000 114.300 TD 30 -1 -13.8556 114.500 30 40 990 215 -13.8000 114.300 TC 30 14 256
2000102S13128 2000 25 SI WA PAUL 2000-04-13 03:00:00 TS -13.9280 113.711 main 579 579 P_____P_____P_ SH242000 -13.9144 113.692 TD 32 -1 -13.9551 113.750 30 40 990 215 -13.9144 113.692 TC 32 13 261
2000102S13128 2000 25 SI WA PAUL 2000-04-13 04:00:00 TS -13.9575 113.501 40 990 bom main 594 594 P_____O_____P_ SH242000 -13.9363 113.501 TD 33 -1 -14.0000 113.500 30 40 990 3.00000 215 3 5 -13.9363 113.501 TC 33 13 260
2000102S13128 2000 25 SI WA PAUL 2000-04-13 06:00:00 TS -14.0355 113.067 main 604 604 O_____P_____O_ jtwc_sh SH242000 -14.0000 113.100 TS 35 0 -14.1065 113.000 30 44 986 215 -14.0000 113.100 TC 35 14 255
2000102S13128 2000 25 SI WA PAUL 2000-04-13 09:00:00 TS -14.2722 112.327 main 658 658 P_____P_____P_ SH242000 -14.2500 112.365 TS 37 0 -14.3165 112.250 30 52 981 215 -14.2500 112.365 TC 37 15 251
2000102S13128 2000 25 SI WA PAUL 2000-04-13 10:00:00 TS -14.3605 112.072 55 980 bom main 673 672 P_____O_____P_ SH242000 -14.3408 112.109 TS 38 0 -14.4000 112.000 30 55 980 4.00000 215 3 5 -14.3408 112.109 TC 38 16 251
2000102S13128 2000 25 SI WA PAUL 2000-04-13 12:00:00 TS -14.5335 111.560 main 683 683 O_____P_____O_ jtwc_sh SH242000 -14.5000 111.600 TS 40 0 -14.6005 111.479 30 58 976 215 -14.5000 111.600 TC 40 15 253
2000102S13128 2000 25 SI WA PAUL 2000-04-13 15:00:00 TS -14.7189 110.827 main 712 712 P_____P_____P_ SH242000 -14.6223 110.877 TS 45 0 -14.9119 110.727 30 63 971 215 -14.6223 110.877 TC 45 14 256
2000102S13128 2000 25 SI WA PAUL 2000-04-13 16:00:00 TS -14.7663 110.597 65 970 bom main 726 726 P_____O_____P_ SH242000 -14.6495 110.645 TS 46 0 -15.0000 110.500 40 65 970 4.50000 215 3 5 -14.6495 110.645 TC 46 13 259
2000102S13128 2000 25 SI WA PAUL 2000-04-13 18:00:00 TS -14.8484 110.164 main 735 735 O_____P_____O_ jtwc_sh SH242000 -14.7000 110.200 TS 50 0 -15.1452 110.091 40 69 966 215 -14.7000 110.200 TC 50 12 259
2000102S13128 2000 25 SI WA PAUL 2000-04-13 21:00:00 TS -14.9651 109.567 main 770 770 P_____P_____P_ SH242000 -14.8073 109.570 TS 55 0 -15.2806 109.561 40 77 961 215 -14.8073 109.570 TC 55 12 259
2000102S13128 2000 25 SI WA PAUL 2000-04-13 22:00:00 TS -14.9941 109.382 80 960 bom main 774 774 P_____O_____P_ SH242000 -14.8411 109.373 TS 56 0 -15.3000 109.400 40 80 960 5.00000 215 3 5 -14.8411 109.373 TC 56 10 262
2000102S13128 2000 25 SI WA PAUL 2000-04-14 00:00:00 TS -15.0345 109.032 main 783 783 O_____P_____O_ jtwc_sh SH242000 -14.9000 109.000 TS 60 0 -15.3035 109.095 40 80 958 215 -14.9000 109.000 TC 60 10 266
2000102S13128 2000 25 SI WA PAUL 2000-04-14 03:00:00 TS -15.0541 108.542 main 809 809 P_____P_____P_ SH242000 -14.9648 108.485 TS 65 1 -15.2327 108.656 40 80 955 215 -14.9648 108.485 TC 65 9 268
2000102S13128 2000 25 SI WA PAUL 2000-04-14 04:00:00 TS -15.0532 108.382 80 955 bom main 812 806 P_____O_____P_ SH242000 -14.9798 108.322 TS 66 1 -15.2000 108.500 40 80 955 5.00000 215 3 5 -14.9798 108.322 TC 66 10 271
2000102S13128 2000 25 SI WA PAUL 2000-04-14 06:00:00 TS -15.0471 108.046 main 807 807 O_____P_____O_ jtwc_sh SH242000 -15.0000 108.000 TY 70 1 -15.1413 108.138 40 84 950 215 -15.0000 108.000 TC 70 10 272
2000102S13128 2000 25 SI WA PAUL 2000-04-14 09:00:00 TS -15.0269 107.531 main 812 812 P_____P_____P_ SH242000 -15.0223 107.508 TY 80 1 -15.0360 107.577 40 92 942 215 -15.0223 107.508 TC 80 10 273
2000102S13128 2000 25 SI WA PAUL 2000-04-14 10:00:00 TS -15.0141 107.361 95 940 bom main 813 813 P_____O_____P_ SH242000 -15.0211 107.341 TY 83 2 -15.0000 107.400 40 95 940 5.50000 215 10 3 5 -15.0211 107.341 TC 83 10 276
2000102S13128 2000 25 SI WA PAUL 2000-04-14 12:00:00 TS -14.9777 107.032 main 820 813 O_____P_____O_ jtwc_sh SH242000 -15.0000 107.000 TY 90 2 -14.9331 107.095 40 96 936 215 -15.0000 107.000 TC 90 10 278
2000102S13128 2000 25 SI WA PAUL 2000-04-14 15:00:00 TS -14.8927 106.519 main 818 818 P_____P_____P_ SH242000 -14.9225 106.450 TY 95 2 -14.8332 106.656 40 99 931 215 -14.9225 106.450 TC 95 10 280
2000102S13128 2000 25 SI WA PAUL 2000-04-14 16:00:00 TS -14.8569 106.343 100 930 bom main 822 811 P_____O_____P_ SH242000 -14.8854 106.264 TY 96 3 -14.8000 106.500 40 100 930 6.00000 215 10 3 5 -14.8854 106.264 TC 96 11 282
2000102S13128 2000 25 SI WA PAUL 2000-04-14 18:00:00 TS -14.7814 105.985 main 819 813 O_____P_____O_ jtwc_sh SH242000 -14.8000 105.900 TY 100 3 -14.7441 106.155 40 103 926 215 -14.8000 105.900 TC 100 10 284
2000102S13128 2000 25 SI WA PAUL 2000-04-14 21:00:00 TS -14.6531 105.465 main 823 813 P_____P_____P_ SH242000 -14.6573 105.400 TY 105 3 -14.6447 105.594 40 108 921 215 -14.6573 105.400 TC 105 10 285
2000102S13128 2000 25 SI WA PAUL 2000-04-14 22:00:00 TS -14.6035 105.291 110 920 bom main 815 807 P_____O_____P_ SH242000 -14.6053 105.236 TY 106 3 -14.6000 105.400 40 110 920 6.50000 215 10 3 5 -14.6053 105.236 TC 106 11 288
2000102S13128 2000 25 SI WA PAUL 2000-04-15 00:00:00 TS -14.4887 104.930 main 811 800 O_____P_____O_ jtwc_sh SH242000 -14.5000 104.900 TY 110 3 -14.4662 104.991 40 113 918 215 -14.5000 104.900 TC 110 11 288
2000102S13128 2000 25 SI WA PAUL 2000-04-15 03:00:00 TS -14.3183 104.362 main 803 803 P_____P_____P_ SH242000 -14.3500 104.350 TY 117 4 -14.2548 104.385 40 118 915 215 -14.3500 104.350 TC 117 11 287
2000102S13128 2000 25 SI WA PAUL 2000-04-15 04:00:00 TS -14.2667 104.176 120 915 bom main 809 801 P_____O_____P_ SH242000 -14.3000 104.164 TY 120 4 -14.2000 104.200 40 120 915 7.00000 215 10 3 5 -14.3000 104.164 TC 120 11 284
2000102S13128 2000 25 SI WA PAUL 2000-04-15 06:00:00 TS -14.1864 103.826 main 812 806 O_____P_____O_ jtwc_sh SH242000 -14.2000 103.800 ST 125 4 -14.1591 103.877 40 120 915 215 -14.2000 103.800 TC 125 10 284
2000102S13128 2000 25 SI WA PAUL 2000-04-15 09:00:00 TS -14.0701 103.347 main 823 813 P_____P_____P_ SH242000 -14.0423 103.300 ST 125 4 -14.1258 103.442 40 120 915 215 -14.0423 103.300 TC 125 10 284
2000102S13128 2000 25 SI WA PAUL 2000-04-15 10:00:00 TS -14.0279 103.191 120 915 bom main 817 817 P_____O_____P_ SH242000 -13.9919 103.136 ST 125 4 -14.1000 103.300 40 120 915 7.00000 215 10 3 5 -13.9919 103.136 TC 125 10 287
2000102S13128 2000 25 SI WA PAUL 2000-04-15 12:00:00 TS -13.9247 102.867 main 822 822 O_____P_____O_ jtwc_sh SH242000 -13.9000 102.800 ST 125 4 -13.9740 103.000 40 120 915 215 -13.9000 102.800 TC 125 10 287
2000102S13128 2000 25 SI WA PAUL 2000-04-15 15:00:00 TS -13.7708 102.340 main 845 835 P_____P_____P_ SH242000 -13.7776 102.235 ST 125 4 -13.7574 102.550 40 120 915 215 -13.7776 102.235 TC 125 11 286
2000102S13128 2000 25 SI WA PAUL 2000-04-15 16:00:00 TS -13.7303 102.166 120 915 bom main 839 839 P_____O_____P_ SH242000 -13.7455 102.048 ST 125 4 -13.7000 102.400 40 120 915 7.00000 215 10 3 5 -13.7455 102.048 TC 125 10 281
2000102S13128 2000 25 SI WA PAUL 2000-04-15 18:00:00 TS -13.6792 101.832 main 857 857 O_____P_____O_ jtwc_sh SH242000 -13.7000 101.700 ST 125 4 -13.6375 102.095 40 116 916 215 -13.7000 101.700 TC 125 9 276
2000102S13128 2000 25 SI WA PAUL 2000-04-15 21:00:00 TS -13.6576 101.400 main 877 877 P_____P_____P_ SH242000 -13.6848 101.278 ST 125 4 -13.6031 101.644 40 111 919 215 -13.6848 101.278 TC 125 8 272
2000102S13128 2000 25 SI WA PAUL 2000-04-15 22:00:00 TS -13.6593 101.267 110 920 bom main 882 882 P_____O_____P_ SH242000 -13.6890 101.150 ST 125 4 -13.6000 101.500 40 110 920 6.50000 215 10 3 5 -13.6890 101.150 TC 125 8 269
2000102S13128 2000 25 SI WA PAUL 2000-04-16 00:00:00 TS -13.6640 101.009 main 899 899 O_____P_____O_ jtwc_sh SH242000 -13.7000 100.900 ST 125 4 -13.5920 101.225 40 110 923 215 -13.7000 100.900 TC 125 8 270
2000102S13128 2000 25 SI WA PAUL 2000-04-16 03:00:00 TS -13.6608 100.605 main 922 922 P_____P_____P_ SH242000 -13.6925 100.492 ST 127 4 -13.5973 100.831 40 110 928 215 -13.6925 100.492 TC 127 8 270
2000102S13128 2000 25 SI WA PAUL 2000-04-16 04:00:00 TS -13.6614 100.472 110 930 bom main 928 928 P_____O_____P_ SH242000 -13.6921 100.359 ST 128 4 -13.6000 100.700 40 110 930 6.50000 215 10 3 5 -13.6921 100.359 TC 128 8 270
2000102S13128 2000 25 SI WA PAUL 2000-04-16 06:00:00 TS -13.6630 100.213 main 946 946 O_____P_____O_ jtwc_sh SH242000 -13.7000 100.100 ST 130 4 -13.5891 100.439 40 108 933 215 -13.7000 100.100 TC 130 7 267
2000102S13128 2000 25 SI WA PAUL 2000-04-16 09:00:00 TS -13.6911 99.8364 main 972 972 P_____P_____P_ SH242000 -13.7424 99.7350 ST 127 4 -13.5885 100.039 40 105 938 215 -13.7424 99.7350 TC 127 7 265
2000102S13128 2000 25 SI WA PAUL 2000-04-16 10:00:00 TS -13.7075 99.7134 105 940 bom main 979 979 P_____O_____P_ SH242000 -13.7612 99.6200 ST 126 4 -13.6000 99.9000 40 105 940 6.00000 215 10 3 5 -13.7612 99.6200 TC 126 7 260
2000102S13128 2000 25 SI WA PAUL 2000-04-16 12:00:00 TS -13.7539 99.4675 main 1001 1001 O_____P_____O_ jtwc_sh SH242000 -13.8000 99.4000 ST 125 4 -13.6617 99.6026 40 101 943 215 -13.8000 99.4000 TC 125 7 259
2000102S13128 2000 25 SI WA PAUL 2000-04-16 15:00:00 TS -13.8242 99.1206 main 1029 1029 P_____P_____P_ SH242000 -13.8499 99.1075 ST 125 4 -13.7728 99.1470 40 96 948 215 -13.8499 99.1075 TC 125 7 259
2000102S13128 2000 25 SI WA PAUL 2000-04-16 16:00:00 TS -13.8444 99.0069 95 950 bom main 1036 1036 P_____O_____P_ SH242000 -13.8666 99.0104 ST 125 4 -13.8000 99.0000 40 95 950 5.50000 215 10 3 5 -13.8666 99.0104 TC 125 7 263
2000102S13128 2000 25 SI WA PAUL 2000-04-16 18:00:00 TS -13.8683 98.7715 main 1059 1059 O_____P_____O_ jtwc_sh SH242000 -13.9000 98.8000 ST 125 4 -13.8049 98.7144 40 93 951 215 -13.9000 98.8000 TC 125 7 265
2000102S13128 2000 25 SI WA PAUL 2000-04-16 21:00:00 TS -13.8980 98.3731 main 1088 1088 P_____P_____P_ SH242000 -13.9501 98.4000 ST 122 4 -13.7938 98.3192 40 90 954 215 -13.9501 98.4000 TC 122 8 265
2000102S13128 2000 25 SI WA PAUL 2000-04-16 22:00:00 TS -13.9112 98.2411 90 955 bom main 1103 1103 P_____O_____P_ SH242000 -13.9667 98.2617 ST 121 4 -13.8000 98.2000 40 90 955 5.50000 215 10 3 5 -13.9667 98.2617 TC 121 7 263
2000102S13128 2000 25 SI WA PAUL 2000-04-17 00:00:00 TS -13.9466 97.9929 main 1119 1119 O_____P_____O_ jtwc_sh SH242000 -14.0000 98.0000 TY 120 4 -13.8399 97.9788 40 90 955 215 -14.0000 98.0000 TC 120 7 259
2000102S13128 2000 25 SI WA PAUL 2000-04-17 03:00:00 TS -14.0116 97.6913 main 1150 1150 P_____P_____P_ SH242000 -14.0424 97.6924 TY 117 4 -13.9500 97.6890 40 90 955 215 -14.0424 97.6924 TC 117 6 256
2000102S13128 2000 25 SI WA PAUL 2000-04-17 04:00:00 TS -14.0391 97.5980 90 955 bom main 1158 1158 P_____O_____P_ SH242000 -14.0587 97.5970 TY 116 4 -14.0000 97.6000 40 90 955 5.50000 215 10 3 5 -14.0587 97.5970 TC 116 6 250
2000102S13128 2000 25 SI WA PAUL 2000-04-17 06:00:00 TS -14.1094 97.4085 main 1181 1181 O_____P_____O_ jtwc_sh SH242000 -14.1000 97.4000 TY 115 4 -14.1283 97.4255 40 90 955 215 -14.1000 97.4000 TC 115 7 248
2000102S13128 2000 25 SI WA PAUL 2000-04-17 09:00:00 TS -14.2416 97.0786 main 1212 1212 P_____P_____P_ SH242000 -14.1926 97.0276 TY 115 4 -14.3395 97.1807 40 90 955 215 -14.1926 97.0276 TC 115 7 248
2000102S13128 2000 25 SI WA PAUL 2000-04-17 10:00:00 TS -14.2853 96.9715 90 955 bom main 1228 1228 P_____O_____P_ SH242000 -14.2280 96.9072 TY 115 4 -14.4000 97.1000 40 90 955 5.50000 215 10 3 5 -14.2280 96.9072 TC 115 6 247
2000102S13128 2000 25 SI WA PAUL 2000-04-17 12:00:00 TS -14.3662 96.7778 main 1251 1251 O_____P_____O_ jtwc_sh SH242000 -14.3000 96.7000 TY 115 4 -14.4987 96.9333 40 90 955 215 -14.3000 96.7000 TC 115 5 245
2000102S13128 2000 25 SI WA PAUL 2000-04-17 15:00:00 TS -14.4679 96.5744 main 1275 1275 P_____P_____P_ SH242000 -14.4074 96.5200 TY 112 3 -14.5890 96.6833 40 90 955 215 -14.4074 96.5200 TC 112 4 243
2000102S13128 2000 25 SI WA PAUL 2000-04-17 16:00:00 TS -14.4941 96.5188 90 955 bom main 1283 1283 P_____O_____P_ SH242000 -14.4412 96.4782 TY 111 3 -14.6000 96.6000 40 90 955 5.50000 215 10 3 5 -14.4412 96.4782 TC 111 3 250
2000102S13128 2000 25 SI WA PAUL 2000-04-17 18:00:00 TS -14.5265 96.4093 main 1291 1291 O_____P_____O_ jtwc_sh SH242000 -14.5000 96.4000 TY 110 3 -14.5795 96.4278 40 88 955 215 -14.5000 96.4000 TC 110 4 259
2000102S13128 2000 25 SI WA PAUL 2000-04-17 21:00:00 TS -14.5477 96.2209 main 1307 1307 P_____P_____P_ SH242000 -14.5650 96.2425 TY 107 3 -14.5131 96.1776 40 85 955 215 -14.5650 96.2425 TC 107 4 264
2000102S13128 2000 25 SI WA PAUL 2000-04-17 22:00:00 TS -14.5533 96.1614 85 955 bom main 1315 1315 P_____O_____P_ SH242000 -14.5800 96.1921 TY 106 3 -14.5000 96.1000 40 85 955 5.00000 215 10 3 5 -14.5800 96.1921 TC 106 3 261
2000102S13128 2000 25 SI WA PAUL 2000-04-18 00:00:00 TS -14.5743 96.0493 main 1331 1331 O_____P_____O_ jtwc_sh SH242000 -14.6000 96.1000 TY 105 3 -14.5230 95.9480 40 83 955 215 -14.6000 96.1000 TC 105 3 259
2000102S13128 2000 25 SI WA PAUL 2000-04-18 03:00:00 TS -14.5996 95.9125 main 1339 1339 P_____P_____P_ SH242000 -14.6075 95.9925 TY 102 3 -14.5838 95.7527 40 80 955 215 -14.6075 95.9925 TC 102 3 260
2000102S13128 2000 25 SI WA PAUL 2000-04-18 04:00:00 TS -14.6036 95.8741 80 955 bom main 1339 1339 P_____O_____P_ SH242000 -14.6054 95.9612 TY 101 3 -14.6000 95.7000 40 80 955 5.00000 215 10 3 5 -14.6054 95.9612 TC 101 2 270
2000102S13128 2000 25 SI WA PAUL 2000-04-18 06:00:00 TS -14.5990 95.8058 main 1348 1348 O_____P_____O_ jtwc_sh SH242000 -14.6000 95.9000 TY 100 3 -14.5970 95.6175 40 80 955 215 -14.6000 95.9000 TC 100 2 272
2000102S13128 2000 25 SI WA PAUL 2000-04-18 09:00:00 TS -14.5971 95.7094 main 1356 1356 P_____P_____P_ SH242000 -14.6000 95.8000 TY 97 3 -14.5912 95.5281 40 80 955 215 -14.6000 95.8000 TC 97 2 270
2000102S13128 2000 25 SI WA PAUL 2000-04-18 10:00:00 TS -14.6000 95.6778 80 955 bom main 1356 1356 P_____O_____P_ SH242000 -14.6000 95.7667 TY 96 3 -14.6000 95.5000 40 80 955 5.00000 215 10 3 5 -14.6000 95.7667 TC 96 2 257
2000102S13128 2000 25 SI WA PAUL 2000-04-18 12:00:00 TS -14.6188 95.6075 main 1364 1364 O_____P_____O_ jtwc_sh SH242000 -14.6000 95.7000 TY 95 2 -14.6563 95.4225 40 80 955 215 -14.6000 95.7000 TC 95 2 253
2000102S13128 2000 25 SI WA PAUL 2000-04-18 15:00:00 TS -14.6507 95.5073 main 1380 1380 P_____P_____P_ SH242000 -14.5925 95.6000 TY 95 2 -14.7671 95.3219 40 80 955 215 -14.5925 95.6000 TC 95 2 251
2000102S13128 2000 25 SI WA PAUL 2000-04-18 16:00:00 TS -14.6614 95.4778 80 955 bom main 1380 1380 P_____O_____P_ SH242000 -14.5921 95.5667 TY 95 2 -14.8000 95.3000 40 80 955 5.00000 215 10 3 5 -14.5921 95.5667 TC 95 2 249
2000102S13128 2000 25 SI WA PAUL 2000-04-18 18:00:00 TS -14.6822 95.4299 main 1388 1388 O_____P_____O_ jtwc_sh SH242000 -14.6000 95.5000 TY 95 2 -14.8467 95.2896 40 76 958 215 -14.6000 95.5000 TC 95 2 238
2000102S13128 2000 25 SI WA PAUL 2000-04-18 21:00:00 TS -14.7306 95.3618 main 1388 1388 P_____P_____P_ SH242000 -14.6500 95.3925 TY 92 2 -14.8917 95.3005 40 71 963 215 -14.6500 95.3925 TC 92 2 235
2000102S13128 2000 25 SI WA PAUL 2000-04-18 22:00:00 TS -14.7461 95.3392 70 965 bom main 1397 1397 P_____O_____P_ SH242000 -14.6691 95.3588 TY 91 2 -14.9000 95.3000 40 70 965 4.50000 215 10 3 5 -14.6691 95.3588 TC 91 2 244
2000102S13128 2000 25 SI WA PAUL 2000-04-19 00:00:00 TS -14.7657 95.2933 main 1404 1404 O_____P_____O_ jtwc_sh SH242000 -14.7000 95.3000 TY 90 2 -14.8970 95.2800 40 70 965 215 -14.7000 95.3000 TC 90 1 256
2000102S13128 2000 25 SI WA PAUL 2000-04-19 03:00:00 TS -14.7687 95.2367 main 1412 1412 P_____P_____P_ SH242000 -14.7075 95.2425 TY 85 2 -14.8912 95.2250 40 70 965 215 -14.7075 95.2425 TC 85 1 266
2000102S13128 2000 25 SI WA PAUL 2000-04-19 04:00:00 TS -14.7703 95.2186 70 965 bom main 1412 1412 P_____O_____P_ SH242000 -14.7054 95.2279 TY 83 2 -14.9000 95.2000 40 70 965 4.50000 215 3 5 -14.7054 95.2279 TC 83 1 249
2000102S13128 2000 25 SI WA PAUL 2000-04-19 06:00:00 TS -14.7891 95.1768 main 1412 1412 O_____P_____O_ jtwc_sh SH242000 -14.7000 95.2000 TY 80 1 -14.9672 95.1304 40 66 968 215 -14.7000 95.2000 TC 80 1 242
2000102S13128 2000 25 SI WA PAUL 2000-04-19 09:00:00 TS -14.8262 95.1132 main 1421 1421 P_____P_____P_ SH242000 -14.7000 95.1575 TY 72 1 -15.0786 95.0246 40 61 973 215 -14.7000 95.1575 TC 72 1 240
2000102S13128 2000 25 SI WA PAUL 2000-04-19 10:00:00 TS -14.8333 95.0942 60 975 bom main 1421 1421 P_____O_____P_ SH242000 -14.7000 95.1412 TY 69 1 -15.1000 95.0000 30 60 975 4.00000 215 3 5 -14.7000 95.1412 TC 69 1 267
2000102S13128 2000 25 SI WA PAUL 2000-04-19 12:00:00 TS -14.8283 95.0668 main 1421 1421 O_____P_____O_ jtwc_sh SH242000 -14.7000 95.1000 TY 65 1 -15.0849 95.0005 30 56 978 215 -14.7000 95.1000 TC 65 1 290
2000102S13128 2000 25 SI WA PAUL 2000-04-19 15:00:00 TS -14.8063 95.0140 main 1429 1429 P_____P_____P_ SH242000 -14.7000 95.0150 TY 65 1 -15.0188 95.0119 30 51 983 215 -14.7000 95.0150 TC 65 1 289
2000102S13128 2000 25 SI WA PAUL 2000-04-19 16:00:00 TS -14.8000 94.9867 50 985 bom main 1429 1429 P_____O_____P_ SH242000 -14.7000 94.9800 TY 65 1 -15.0000 95.0000 30 50 985 3.50000 215 3 5 -14.7000 94.9800 TC 65 2 273
2000102S13128 2000 25 SI WA PAUL 2000-04-19 18:00:00 TS -14.8010 94.9061 main 1438 1438 O_____P_____O_ jtwc_sh SH242000 -14.7000 94.9000 TY 65 1 -15.0030 94.9183 30 50 985 215 -14.7000 94.9000 TC 65 3 271
2000102S13128 2000 25 SI WA PAUL 2000-04-19 21:00:00 TS -14.7979 94.7607 main 1446 1446 P_____P_____P_ SH242000 -14.6925 94.7650 TY 60 0 -15.0088 94.7522 30 50 985 215 -14.6925 94.7650 TC 60 3 272
2000102S13128 2000 25 SI WA PAUL 2000-04-19 22:00:00 TS -14.7947 94.7089 50 985 bom main 1455 1455 P_____O_____P_ SH242000 -14.6921 94.7133 TY 58 0 -15.0000 94.7000 30 50 985 3.50000 215 3 5 -14.6921 94.7133 TC 58 3 281
2000102S13128 2000 25 SI WA PAUL 2000-04-20 00:00:00 TS -14.7718 94.6108 main 1463 1463 O_____P_____O_ jtwc_sh SH242000 -14.7000 94.6000 TS 55 0 -14.9155 94.6323 30 46 986 215 -14.7000 94.6000 TC 55 3 277
2000102S13128 2000 25 SI WA PAUL 2000-04-20 03:00:00 TS -14.7627 94.4510 main 1472 1472 P_____P_____P_ SH242000 -14.7425 94.4075 TS 52 0 -14.8032 94.5379 30 41 989 215 -14.7425 94.4075 TC 52 3 270
2000102S13128 2000 25 SI WA PAUL 2000-04-20 04:00:00 TS -14.7718 94.3827 40 990 bom main 1481 1481 P_____O_____P_ SH242000 -14.7612 94.3388 TS 51 0 -14.8000 94.5000 30 40 990 3.00000 215 3 5 -14.7612 94.3388 TC 51 4 256
2000102S13128 2000 25 SI WA PAUL 2000-04-20 06:00:00 TS -14.8141 94.2414 main 1496 1496 O_____P_____O_ jtwc_sh SH242000 -14.8000 94.2000 TS 50 0 -14.8703 94.4068 30 37 992 215 -14.8000 94.2000 TC 50 4 254
2000102S13128 2000 25 SI WA PAUL 2000-04-20 08:00:00 TS -14.8518 94.0926 35 995 bom main 1511 1511 P_____O_____P_ SH242000 -14.8333 94.0667 TS 48 0 -15.0000 94.3000 30 35 995 3.00000 215 3 5 -14.8333 94.0667 TC 48 5 261
2000102S13128 2000 25 SI WA PAUL 2000-04-20 09:00:00 TS -14.8500 94.0000 main 1510 1510 P___________P_ SH242000 -14.8500 94.0000 TS 47 0 30 -14.8500 94.0000 TC 47 4 260
2000102S13128 2000 25 SI WA PAUL 2000-04-20 12:00:00 TS -14.9000 93.8000 main 1533 1533 O___________O_ jtwc_sh SH242000 -14.9000 93.8000 TS 45 0 -14.9000 93.8000 TC 45 4 255
2000102S13128 2000 25 SI WA PAUL 2000-04-20 15:00:00 TS -14.9500 93.6000 main 1547 1547 P___________P_ SH242000 -14.9500 93.6000 TS 40 0 -14.9500 93.6000 TC 40 4 255
2000102S13128 2000 25 SI WA PAUL 2000-04-20 18:00:00 TS -15.0000 93.4000 main 1570 1570 O___________O_ jtwc_sh SH242000 -15.0000 93.4000 TS 35 0 -15.0000 93.4000 TC 35 4 255
2000102S13128 2000 25 SI WA PAUL 2000-04-20 21:00:00 TS -15.0499 93.2225 main 1584 1584 P___________P_ SH242000 -15.0499 93.2225 TS 35 0 -15.0499 93.2225 TC 35 4 255
2000102S13128 2000 25 SI WA PAUL 2000-04-21 00:00:00 TS -15.1000 93.0000 main 1607 1607 O___________O_ jtwc_sh SH242000 -15.1000 93.0000 TS 35 0 -15.1000 93.0000 TC 35 5 259
2000102S13128 2000 25 SI WA PAUL 2000-04-21 03:00:00 TS -15.1500 92.6725 main 1636 1636 P___________P_ SH242000 -15.1500 92.6725 TS 35 0 -15.1500 92.6725 TC 35 7 262
2000102S13128 2000 25 SI WA PAUL 2000-04-21 06:00:00 TS -15.2000 92.3000 main 1665 1665 O___________O_ jtwc_sh SH242000 -15.2000 92.3000 TS 35 0 -15.2000 92.3000 TC 35 7 262
2000102S13128 2000 25 SI WA PAUL 2000-04-21 09:00:00 TS -15.2499 91.9500 main 1694 1694 P___________P_ SH242000 -15.2499 91.9500 TS 35 0 -15.2499 91.9500 TC 35 7 262
2000102S13128 2000 25 SI WA PAUL 2000-04-21 12:00:00 TS -15.3000 91.6000 main 1721 1721 O___________O_ jtwc_sh SH242000 -15.3000 91.6000 TS 35 0 -15.3000 91.6000 TC 35 7 262
2000102S13128 2000 25 SI WA PAUL 2000-04-21 15:00:00 TS -15.3501 91.2500 main 1746 1746 P___________P_ SH242000 -15.3501 91.2500 TS 30 -1 -15.3501 91.2500 TC 30 7 262
2000102S13128 2000 25 SI WA PAUL 2000-04-21 18:00:00 TS -15.4000 90.9000 main 1768 O___________O_ jtwc_sh SH242000 -15.4000 90.9000 TD 25 -1 -15.4000 90.9000 TC 25 7 262

IBTrACS Databaseについて

本データベースは、米国NOAAが公開する1842年以降の世界の熱帯低気圧のベストトラックデータアーカイブInternational Best Track Archive for Climate Stewardship (IBTrACS)を、ウェブで閲覧しやすい形式に変換したものです。

最終更新日:2021-12-01